createdAt,value
2022-11-20T00:02:23.765Z,44.41
2022-11-20T00:04:50.255Z,44.36
2022-11-20T00:07:16.671Z,44.40
2022-11-20T00:09:43.137Z,44.32
2022-11-20T00:12:09.962Z,44.51
2022-11-20T00:14:36.349Z,44.48
2022-11-20T00:17:02.788Z,44.44
2022-11-20T00:19:29.237Z,44.45
2022-11-20T00:21:56.415Z,44.41
2022-11-20T00:24:22.849Z,44.43
2022-11-20T00:26:49.355Z,44.43
2022-11-20T00:29:15.817Z,44.37
2022-11-20T00:31:42.238Z,44.44
2022-11-20T00:34:08.705Z,44.43
2022-11-20T00:36:35.429Z,44.35
2022-11-20T00:39:02.101Z,44.33
2022-11-20T00:41:29.394Z,44.42
2022-11-20T00:43:56.207Z,44.46
2022-11-20T00:46:23.455Z,44.41
2022-11-20T00:48:49.945Z,44.45
2022-11-20T00:51:20.486Z,44.45
2022-11-20T00:53:47.204Z,44.50
2022-11-20T00:56:15.062Z,44.54
2022-11-20T00:58:42.378Z,44.52
2022-11-20T01:01:08.840Z,44.53
2022-11-20T01:03:37.087Z,44.57
2022-11-20T01:06:04.348Z,44.48
2022-11-20T01:08:32.533Z,44.61
2022-11-20T01:11:03.150Z,44.46
2022-11-20T01:13:39.276Z,44.48
2022-11-20T01:16:14.056Z,44.49
2022-11-20T01:18:41.560Z,44.68
2022-11-20T01:21:09.301Z,44.64
2022-11-20T01:23:37.398Z,44.62
2022-11-20T01:26:05.322Z,44.48
2022-11-20T01:28:32.086Z,44.62
2022-11-20T01:30:59.086Z,44.58
2022-11-20T01:33:26.429Z,44.59
2022-11-20T01:35:53.158Z,44.53
2022-11-20T01:38:21.079Z,44.67
2022-11-20T01:40:54.902Z,44.59
2022-11-20T01:43:21.507Z,44.50
2022-11-20T01:45:57.169Z,44.58
2022-11-20T01:48:25.242Z,44.50
2022-11-20T01:50:53.566Z,44.59
2022-11-20T01:53:22.236Z,44.39
2022-11-20T01:55:51.135Z,44.54
2022-11-20T01:58:20.776Z,44.50
2022-11-20T02:00:47.210Z,44.61
2022-11-20T02:03:17.036Z,44.53
2022-11-20T02:05:58.816Z,44.64
2022-11-20T02:08:25.285Z,44.72
2022-11-20T02:10:51.820Z,44.74
2022-11-20T02:13:37.021Z,44.75
2022-11-20T02:16:04.266Z,46.22
2022-11-20T02:18:30.999Z,46.52
2022-11-20T02:21:05.599Z,45.52
2022-11-20T02:23:52.862Z,45.15
2022-11-20T02:26:21.034Z,44.64
2022-11-20T02:28:47.583Z,44.41
2022-11-20T02:31:14.025Z,44.22
2022-11-20T02:33:40.437Z,44.31
2022-11-20T02:36:10.351Z,44.11
2022-11-20T02:38:36.854Z,43.97
2022-11-20T02:41:03.329Z,43.94
2022-11-20T02:43:29.829Z,43.87
2022-11-20T02:45:56.437Z,43.75
2022-11-20T02:48:25.110Z,43.71
2022-11-20T02:50:51.813Z,43.60
2022-11-20T02:53:18.266Z,43.70
2022-11-20T02:55:44.725Z,43.42
2022-11-20T02:58:11.446Z,43.52
2022-11-20T03:00:37.877Z,43.54
2022-11-20T03:03:04.355Z,43.46
2022-11-20T03:05:30.821Z,43.69
2022-11-20T03:07:57.318Z,43.68
2022-11-20T03:10:23.783Z,43.66
2022-11-20T03:12:53.854Z,43.52
2022-11-20T03:15:20.263Z,43.59
2022-11-20T03:17:46.720Z,43.61
2022-11-20T03:20:13.313Z,43.47
2022-11-20T03:22:39.721Z,43.50
2022-11-20T03:25:06.270Z,43.37
2022-11-20T03:27:34.369Z,43.43
2022-11-20T03:30:00.825Z,43.38
2022-11-20T03:32:27.470Z,43.31
2022-11-20T03:34:53.839Z,43.23
2022-11-20T03:37:20.417Z,43.20
2022-11-20T03:39:46.843Z,43.28
2022-11-20T03:42:32.070Z,43.22
2022-11-20T03:44:58.506Z,43.23
2022-11-20T03:47:24.970Z,43.19
2022-11-20T03:49:51.396Z,43.13
2022-11-20T03:52:17.845Z,43.18
2022-11-20T03:54:44.303Z,43.13
2022-11-20T03:57:10.725Z,43.09
2022-11-20T03:59:37.134Z,42.99
2022-11-20T04:02:03.592Z,43.02
2022-11-20T04:04:30.158Z,42.90
2022-11-20T04:06:56.644Z,42.96
2022-11-20T04:09:23.497Z,42.96
2022-11-20T04:11:50.101Z,42.88
2022-11-20T04:14:17.168Z,42.97
2022-11-20T04:16:43.790Z,42.97
2022-11-20T04:19:12.445Z,42.69
2022-11-20T04:21:39.222Z,42.94
2022-11-20T04:24:05.993Z,42.81
2022-11-20T04:26:32.446Z,42.91
2022-11-20T04:29:01.478Z,43.74
2022-11-20T04:31:29.115Z,43.89
2022-11-20T04:33:55.546Z,43.66
2022-11-20T04:36:23.802Z,43.56
2022-11-20T04:38:57.053Z,43.74
2022-11-20T04:41:24.668Z,43.37
2022-11-20T04:43:52.283Z,43.14
2022-11-20T04:46:20.291Z,43.20
2022-11-20T04:48:47.128Z,43.17
2022-11-20T04:51:13.720Z,43.19
2022-11-20T04:53:40.123Z,43.05
2022-11-20T04:56:07.922Z,42.95
2022-11-20T04:58:35.409Z,42.89
2022-11-20T05:01:10.203Z,42.96
2022-11-20T05:03:41.968Z,42.85
2022-11-20T05:06:09.719Z,42.86
2022-11-20T05:08:36.182Z,42.88
2022-11-20T05:11:06.740Z,42.85
2022-11-20T05:13:33.309Z,42.83
2022-11-20T05:16:03.803Z,42.74
2022-11-20T05:18:30.294Z,42.73
2022-11-20T05:20:57.545Z,42.71
2022-11-20T05:23:24.439Z,42.82
2022-11-20T05:25:59.421Z,42.63
2022-11-20T05:28:26.953Z,42.68
2022-11-20T05:30:53.403Z,42.63
2022-11-20T05:33:20.076Z,42.60
2022-11-20T05:35:46.577Z,42.65
2022-11-20T05:38:13.155Z,42.57
2022-11-20T05:40:39.635Z,42.65
2022-11-20T05:43:06.094Z,42.63
2022-11-20T05:45:32.614Z,42.68
2022-11-20T05:48:00.192Z,42.60
2022-11-20T05:50:27.120Z,42.66
2022-11-20T05:52:53.543Z,42.84
2022-11-20T05:55:19.965Z,42.66
2022-11-20T05:57:46.513Z,42.66
2022-11-20T06:00:16.049Z,42.64
2022-11-20T06:02:42.584Z,42.76
2022-11-20T06:05:09.182Z,42.75
2022-11-20T06:07:35.665Z,42.65
2022-11-20T06:10:02.197Z,42.68
2022-11-20T06:12:28.681Z,42.54
2022-11-20T06:14:55.075Z,42.66
2022-11-20T06:17:21.481Z,42.45
2022-11-20T06:19:47.907Z,42.39
2022-11-20T06:22:14.327Z,42.47
2022-11-20T06:24:40.761Z,43.54
2022-11-20T06:27:07.279Z,44.13
2022-11-20T06:29:34.260Z,43.99
2022-11-20T06:32:00.857Z,43.76
2022-11-20T06:34:27.341Z,43.50
2022-11-20T06:36:53.786Z,43.21
2022-11-20T06:39:20.688Z,43.17
2022-11-20T06:41:47.322Z,43.21
2022-11-20T06:44:13.791Z,43.14
2022-11-20T06:46:40.214Z,43.13
2022-11-20T06:49:06.999Z,43.23
2022-11-20T06:51:33.668Z,43.28
2022-11-20T06:54:01.913Z,43.21
2022-11-20T06:56:28.944Z,43.12
2022-11-20T06:58:55.445Z,43.13
2022-11-20T07:01:22.150Z,43.12
2022-11-20T07:03:54.036Z,43.09
2022-11-20T07:06:20.941Z,43.02
2022-11-20T07:08:48.031Z,43.04
2022-11-20T07:11:14.938Z,42.97
2022-11-20T07:13:41.545Z,43.00
2022-11-20T07:16:08.774Z,42.93
2022-11-20T07:18:35.326Z,42.84
2022-11-20T07:21:02.687Z,42.76
2022-11-20T07:23:29.133Z,42.83
2022-11-20T07:25:55.745Z,42.84
2022-11-20T07:28:22.166Z,42.96
2022-11-20T07:30:52.515Z,42.93
2022-11-20T07:33:19.116Z,42.94
2022-11-20T07:35:46.085Z,42.97
2022-11-20T07:38:12.583Z,43.08
2022-11-20T07:40:39.045Z,43.06
2022-11-20T07:43:05.634Z,42.98
2022-11-20T07:45:32.050Z,43.00
2022-11-20T07:47:58.502Z,43.06
2022-11-20T07:50:25.058Z,42.96
2022-11-20T07:52:51.634Z,43.08
2022-11-20T07:55:18.175Z,43.06
2022-11-20T07:57:44.628Z,42.87
2022-11-20T08:00:12.028Z,42.87
2022-11-20T08:02:39.992Z,42.94
2022-11-20T08:05:06.970Z,42.71
2022-11-20T08:07:40.419Z,42.66
2022-11-20T08:10:07.558Z,42.65
2022-11-20T08:12:52.593Z,42.75
2022-11-20T08:15:19.150Z,42.75
2022-11-20T08:18:01.974Z,42.73
2022-11-20T08:20:32.150Z,42.76
2022-11-20T08:23:00.595Z,42.71
2022-11-20T08:25:27.486Z,42.67
2022-11-20T08:27:57.859Z,42.79
2022-11-20T08:30:27.043Z,42.85
2022-11-20T08:32:53.869Z,42.71
2022-11-20T08:35:20.643Z,42.73
2022-11-20T08:37:47.726Z,42.53
2022-11-20T08:40:19.310Z,42.74
2022-11-20T08:42:49.590Z,42.72
2022-11-20T08:45:16.202Z,42.70
2022-11-20T08:47:43.121Z,42.75
2022-11-20T08:50:13.000Z,42.80
2022-11-20T08:52:40.028Z,42.84
2022-11-20T08:55:07.578Z,42.74
2022-11-20T08:57:34.381Z,42.95
2022-11-20T09:00:08.546Z,42.85
2022-11-20T09:02:35.618Z,43.02
2022-11-20T09:05:03.390Z,42.88
2022-11-20T09:07:30.964Z,42.87
2022-11-20T09:10:22.100Z,42.78
2022-11-20T09:12:44.003Z,42.80
2022-11-20T09:15:12.788Z,42.81
2022-11-20T09:17:39.210Z,42.90
2022-11-20T09:20:06.021Z,42.79
2022-11-20T09:22:32.488Z,42.82
2022-11-20T09:24:58.952Z,43.54
2022-11-20T09:27:25.362Z,44.59
2022-11-20T09:29:51.857Z,45.48
2022-11-20T09:32:18.302Z,45.97
2022-11-20T09:34:44.704Z,46.46
2022-11-20T09:37:11.244Z,46.20
2022-11-20T09:39:39.896Z,44.78
2022-11-20T09:42:15.157Z,41.56
2022-11-20T09:44:44.702Z,38.20
2022-11-20T09:47:11.247Z,36.67
2022-11-20T09:49:51.758Z,38.11
2022-11-20T09:52:27.823Z,40.00
2022-11-20T09:54:54.466Z,41.35
2022-11-20T09:57:24.346Z,42.01
2022-11-20T09:59:52.200Z,42.40
2022-11-20T10:02:25.166Z,42.51
2022-11-20T10:05:00.200Z,42.63
2022-11-20T10:07:33.437Z,42.74
2022-11-20T10:10:00.297Z,42.85
2022-11-20T10:12:47.036Z,42.78
2022-11-20T10:15:13.428Z,42.74
2022-11-20T10:18:02.323Z,42.76
2022-11-20T10:20:34.562Z,42.72
2022-11-20T10:23:13.307Z,42.67
2022-11-20T10:25:43.666Z,42.78
2022-11-20T10:28:29.795Z,42.72
2022-11-20T10:31:04.877Z,42.85
2022-11-20T10:33:49.973Z,42.79
2022-11-20T10:36:29.086Z,42.91
2022-11-20T10:38:59.605Z,42.91
2022-11-20T10:41:35.976Z,42.82
2022-11-20T10:44:13.330Z,42.85
2022-11-20T10:46:41.675Z,43.04
2022-11-20T10:49:15.479Z,42.96
2022-11-20T10:51:51.116Z,42.88
2022-11-20T10:54:20.966Z,42.96
2022-11-20T10:56:50.335Z,43.02
2022-11-20T10:59:35.646Z,42.95
2022-11-20T11:02:03.472Z,43.00
2022-11-20T11:04:46.429Z,43.04
2022-11-20T11:07:22.553Z,43.05
2022-11-20T11:09:56.019Z,43.13
2022-11-20T11:12:24.637Z,43.22
2022-11-20T11:14:52.222Z,43.22
2022-11-20T11:17:21.670Z,43.16
2022-11-20T11:19:57.733Z,43.18
2022-11-20T11:22:24.177Z,43.32
2022-11-20T11:24:54.072Z,43.19
2022-11-20T11:27:20.606Z,43.27
2022-11-20T11:29:47.558Z,43.30
2022-11-20T11:32:15.632Z,43.36
2022-11-20T11:34:42.170Z,43.38
2022-11-20T11:37:18.508Z,43.42
2022-11-20T11:39:49.406Z,43.47
2022-11-20T11:42:21.845Z,43.48
2022-11-20T11:45:07.380Z,43.51
2022-11-20T11:47:36.862Z,43.58
2022-11-20T11:50:03.299Z,43.57
2022-11-20T11:52:30.121Z,43.80
2022-11-20T11:54:59.098Z,43.66
2022-11-20T11:57:37.868Z,43.59
2022-11-20T12:00:07.355Z,43.92
2022-11-20T12:02:42.782Z,43.82
2022-11-20T12:05:27.877Z,43.83
2022-11-20T12:08:14.588Z,43.88
2022-11-20T12:10:59.394Z,43.81
2022-11-20T12:13:31.949Z,43.89
2022-11-20T12:15:59.117Z,43.95
2022-11-20T12:18:25.690Z,43.89
2022-11-20T12:21:04.856Z,43.87
2022-11-20T12:23:31.282Z,43.89
2022-11-20T12:25:59.662Z,43.94
2022-11-20T12:28:26.165Z,43.88
2022-11-20T12:30:52.638Z,44.04
2022-11-20T12:33:26.882Z,44.04
2022-11-20T12:36:11.883Z,43.91
2022-11-20T12:38:47.642Z,44.03
2022-11-20T12:41:47.467Z,43.97
2022-11-20T12:44:47.684Z,44.07
2022-11-20T12:47:14.179Z,44.05
2022-11-20T12:49:58.256Z,44.06
2022-11-20T12:52:47.898Z,44.15
2022-11-20T12:55:22.313Z,44.11
2022-11-20T12:57:51.971Z,44.14
2022-11-20T13:00:22.645Z,44.21
2022-11-20T13:03:09.023Z,44.13
2022-11-20T13:05:35.491Z,44.20
2022-11-20T13:08:03.059Z,44.20
2022-11-20T13:10:55.927Z,44.18
2022-11-20T13:13:22.366Z,44.23
2022-11-20T13:15:54.931Z,44.18
2022-11-20T13:18:21.538Z,44.19
2022-11-20T13:20:49.196Z,44.11
2022-11-20T13:23:28.727Z,44.18
2022-11-20T13:26:05.849Z,44.14
2022-11-20T13:28:32.953Z,44.16
2022-11-20T13:30:59.922Z,44.30
2022-11-20T13:33:35.639Z,44.16
2022-11-20T13:36:03.863Z,44.37
2022-11-20T13:38:41.919Z,44.47
2022-11-20T13:41:28.682Z,44.42
2022-11-20T13:43:58.146Z,44.53
2022-11-20T13:46:25.855Z,44.47
2022-11-20T13:48:54.574Z,44.44
2022-11-20T13:51:36.449Z,44.46
2022-11-20T13:54:05.618Z,44.61
2022-11-20T13:56:32.097Z,44.63
2022-11-20T13:59:05.199Z,44.61
2022-11-20T14:01:32.994Z,44.61
2022-11-20T14:04:06.073Z,44.63
2022-11-20T14:06:35.617Z,44.76
2022-11-20T14:09:02.224Z,44.75
2022-11-20T14:11:32.012Z,44.77
2022-11-20T14:14:04.059Z,44.69
2022-11-20T14:16:31.857Z,44.76
2022-11-20T14:18:59.137Z,44.79
2022-11-20T14:21:30.393Z,44.77
2022-11-20T14:24:07.001Z,44.77
2022-11-20T14:26:34.242Z,44.75
2022-11-20T14:29:01.104Z,44.85
2022-11-20T14:31:28.830Z,44.76
2022-11-20T14:33:55.961Z,44.74
2022-11-20T14:36:24.526Z,44.78
2022-11-20T14:38:51.896Z,44.75
2022-11-20T14:41:22.707Z,44.83
2022-11-20T14:43:57.722Z,44.83
2022-11-20T14:46:24.719Z,44.70
2022-11-20T14:48:52.694Z,44.65
2022-11-20T14:51:30.674Z,44.47
2022-11-20T14:53:57.217Z,44.35
2022-11-20T14:56:25.074Z,44.41
2022-11-20T14:58:58.465Z,44.30
2022-11-20T15:01:29.419Z,44.32
2022-11-20T15:04:10.453Z,44.25
2022-11-20T15:06:37.764Z,44.35
2022-11-20T15:09:06.117Z,44.27
2022-11-20T15:11:34.741Z,44.29
2022-11-20T15:14:05.782Z,44.28
2022-11-20T15:16:32.512Z,44.30
2022-11-20T15:18:59.419Z,44.14
2022-11-20T15:21:26.305Z,44.23
2022-11-20T15:23:52.757Z,44.24
2022-11-20T15:26:27.129Z,44.24
2022-11-20T15:28:53.735Z,44.17
2022-11-20T15:31:22.007Z,44.15
2022-11-20T15:33:48.831Z,44.23
2022-11-20T15:36:15.724Z,44.21
2022-11-20T15:38:42.289Z,44.24
2022-11-20T15:41:08.928Z,44.21
2022-11-20T15:43:35.445Z,44.18
2022-11-20T15:46:04.319Z,44.19
2022-11-20T15:48:32.373Z,44.22
2022-11-20T15:51:04.994Z,44.25
2022-11-20T15:53:31.470Z,44.30
2022-11-20T15:55:58.061Z,44.23
2022-11-20T15:58:25.282Z,44.22
2022-11-20T16:00:51.970Z,44.29
2022-11-20T16:03:18.441Z,44.24
2022-11-20T16:05:45.161Z,44.19
2022-11-20T16:08:12.196Z,44.17
2022-11-20T16:10:39.053Z,44.23
2022-11-20T16:13:24.894Z,44.29
2022-11-20T16:15:53.735Z,44.23
2022-11-20T16:18:21.526Z,44.32
2022-11-20T16:20:50.033Z,44.30
2022-11-20T16:23:16.683Z,44.32
2022-11-20T16:25:43.903Z,44.05
2022-11-20T16:28:13.562Z,44.34
2022-11-20T16:30:44.077Z,44.28
2022-11-20T16:33:11.999Z,44.30
2022-11-20T16:35:38.518Z,44.36
2022-11-20T16:38:04.917Z,44.26
2022-11-20T16:40:31.398Z,44.53
2022-11-20T16:42:58.148Z,44.42
2022-11-20T16:45:27.021Z,44.41
2022-11-20T16:47:56.521Z,44.33
2022-11-20T16:50:22.949Z,44.43
2022-11-20T16:52:49.514Z,44.41
2022-11-20T16:55:16.014Z,44.42
2022-11-20T16:57:42.742Z,44.32
2022-11-20T17:00:09.538Z,44.39
2022-11-20T17:02:37.877Z,44.43
2022-11-20T17:05:04.597Z,44.44
2022-11-20T17:07:31.150Z,44.39
2022-11-20T17:09:58.148Z,44.50
2022-11-20T17:12:24.653Z,44.44
2022-11-20T17:14:51.103Z,44.41
2022-11-20T17:17:17.569Z,44.45
2022-11-20T17:19:44.051Z,44.42
2022-11-20T17:22:10.601Z,44.41
2022-11-20T17:24:36.973Z,44.49
2022-11-20T17:27:03.436Z,44.44
2022-11-20T17:29:30.023Z,44.31
2022-11-20T17:31:56.418Z,44.29
2022-11-20T17:34:23.200Z,44.46
2022-11-20T17:36:50.214Z,44.43
2022-11-20T17:39:17.475Z,44.56
2022-11-20T17:41:44.380Z,44.48
2022-11-20T17:44:11.712Z,44.48
2022-11-20T17:46:38.514Z,44.50
2022-11-20T17:49:05.114Z,44.47
2022-11-20T17:51:32.705Z,44.49
2022-11-20T17:54:01.081Z,44.58
2022-11-20T17:56:49.705Z,44.55
2022-11-20T17:59:16.603Z,44.49
2022-11-20T18:01:43.251Z,44.55
2022-11-20T18:04:10.630Z,44.47
2022-11-20T18:06:37.225Z,44.49
2022-11-20T18:09:04.568Z,44.51
2022-11-20T18:11:35.440Z,44.56
2022-11-20T18:14:21.964Z,44.56
2022-11-20T18:16:50.233Z,44.49
2022-11-20T18:19:18.849Z,44.52
2022-11-20T18:21:45.359Z,44.57
2022-11-20T18:24:11.752Z,44.49
2022-11-20T18:26:43.904Z,44.61
2022-11-20T18:29:11.631Z,44.57
2022-11-20T18:31:38.272Z,44.66
2022-11-20T18:34:05.421Z,44.66
2022-11-20T18:36:32.671Z,44.63
2022-11-20T18:39:00.053Z,44.59
2022-11-20T18:41:46.019Z,44.66
2022-11-20T18:44:35.789Z,44.59
2022-11-20T18:47:04.852Z,44.64
2022-11-20T18:49:34.350Z,44.60
2022-11-20T18:52:00.936Z,44.64
2022-11-20T18:54:27.323Z,44.56
2022-11-20T18:56:53.821Z,44.71
2022-11-20T18:59:20.609Z,44.60
2022-11-20T19:01:47.849Z,44.61
2022-11-20T19:04:15.062Z,44.61
2022-11-20T19:06:42.323Z,44.59
2022-11-20T19:09:09.561Z,44.57
2022-11-20T19:11:36.814Z,44.53
2022-11-20T19:14:03.385Z,44.47
2022-11-20T19:16:30.241Z,44.68
2022-11-20T19:19:03.056Z,44.63
2022-11-20T19:21:30.455Z,44.70
2022-11-20T19:23:58.486Z,44.67
2022-11-20T19:26:25.459Z,44.63
2022-11-20T19:28:52.201Z,44.53
2022-11-20T19:31:24.299Z,44.71
2022-11-20T19:33:58.579Z,44.74
2022-11-20T19:36:26.577Z,44.71
2022-11-20T19:38:53.590Z,44.64
2022-11-20T19:41:21.432Z,44.69
2022-11-20T19:43:49.869Z,44.73
2022-11-20T19:46:21.038Z,44.71
2022-11-20T19:48:47.661Z,44.70
2022-11-20T19:51:18.785Z,44.83
2022-11-20T19:53:45.382Z,44.59
2022-11-20T19:56:12.098Z,44.72
2022-11-20T19:58:39.386Z,44.67
2022-11-20T20:01:16.870Z,44.68
2022-11-20T20:03:44.852Z,44.63
2022-11-20T20:06:13.518Z,44.62
2022-11-20T20:08:40.390Z,44.65
2022-11-20T20:11:13.940Z,44.64
2022-11-20T20:13:40.982Z,44.66
2022-11-20T20:16:08.234Z,44.64
2022-11-20T20:18:34.674Z,44.57
2022-11-20T20:21:05.310Z,44.52
2022-11-20T20:23:32.298Z,44.57
2022-11-20T20:25:59.777Z,44.69
2022-11-20T20:28:26.575Z,44.58
2022-11-20T20:30:53.118Z,44.55
2022-11-20T20:33:19.522Z,44.55
2022-11-20T20:35:46.182Z,44.53
2022-11-20T20:38:12.765Z,44.50
2022-11-20T20:40:39.293Z,44.62
2022-11-20T20:43:05.772Z,44.56
2022-11-20T20:45:32.259Z,44.57
2022-11-20T20:47:58.769Z,44.55
2022-11-20T20:50:25.271Z,44.51
2022-11-20T20:52:51.833Z,44.58
2022-11-20T20:55:18.414Z,44.53
2022-11-20T20:57:44.882Z,44.57
2022-11-20T21:00:11.511Z,44.60
2022-11-20T21:02:38.046Z,44.58
2022-11-20T21:05:04.709Z,44.60
2022-11-20T21:07:31.214Z,44.65
2022-11-20T21:09:57.793Z,44.54
2022-11-20T21:12:24.295Z,44.59
2022-11-20T21:14:50.793Z,44.59
2022-11-20T21:17:17.303Z,44.55
2022-11-20T21:19:43.788Z,44.62
2022-11-20T21:22:10.197Z,44.56
2022-11-20T21:24:36.733Z,44.49
2022-11-20T21:27:04.711Z,44.49
2022-11-20T21:29:31.393Z,44.54
2022-11-20T21:31:58.181Z,44.50
2022-11-20T21:34:25.619Z,44.60
2022-11-20T21:36:52.433Z,44.67
2022-11-20T21:39:21.781Z,44.55
2022-11-20T21:41:48.261Z,44.65
2022-11-20T21:44:31.657Z,44.65
2022-11-20T21:46:58.653Z,44.60
2022-11-20T21:49:25.430Z,44.82
2022-11-20T21:51:53.681Z,45.17
2022-11-20T21:54:20.204Z,45.61
2022-11-20T21:56:46.685Z,46.35
2022-11-20T21:59:14.026Z,46.28
2022-11-20T22:01:41.604Z,46.37
2022-11-20T22:04:13.117Z,46.32
2022-11-20T22:06:39.641Z,46.52
2022-11-20T22:09:06.123Z,46.06
2022-11-20T22:11:32.662Z,46.05
2022-11-20T22:14:17.721Z,45.74
2022-11-20T22:16:44.186Z,45.75
2022-11-20T22:19:10.713Z,45.70
2022-11-20T22:21:38.668Z,45.62
2022-11-20T22:24:05.170Z,45.48
2022-11-20T22:26:34.935Z,45.60
2022-11-20T22:29:04.010Z,45.46
2022-11-20T22:31:31.044Z,45.42
2022-11-20T22:33:58.328Z,45.56
2022-11-20T22:36:25.958Z,45.58
2022-11-20T22:38:52.371Z,45.60
2022-11-20T22:41:20.133Z,45.70
2022-11-20T22:43:47.004Z,45.44
2022-11-20T22:46:20.101Z,45.49
2022-11-20T22:48:50.667Z,45.47
2022-11-20T22:51:17.497Z,45.38
2022-11-20T22:53:46.440Z,45.36
2022-11-20T22:56:13.556Z,45.55
2022-11-20T22:58:41.102Z,45.31
2022-11-20T23:01:08.846Z,44.70
2022-11-20T23:03:35.580Z,44.29
2022-11-20T23:06:02.439Z,44.13
2022-11-20T23:08:29.276Z,43.88
2022-11-20T23:11:02.498Z,43.69
2022-11-20T23:13:29.429Z,43.50
2022-11-20T23:16:00.433Z,43.31
2022-11-20T23:18:26.938Z,43.26
2022-11-20T23:20:53.487Z,43.02
2022-11-20T23:23:19.986Z,42.94
2022-11-20T23:25:46.386Z,43.00
2022-11-20T23:28:12.873Z,42.86
2022-11-20T23:30:39.405Z,42.67
2022-11-20T23:33:05.826Z,42.53
2022-11-20T23:35:32.298Z,42.48
2022-11-20T23:37:58.867Z,42.41
2022-11-20T23:40:25.289Z,42.31
2022-11-20T23:43:10.374Z,42.27
2022-11-20T23:45:38.005Z,42.13
2022-11-20T23:48:04.774Z,42.07
2022-11-20T23:50:31.190Z,42.05
2022-11-20T23:52:57.756Z,41.97
2022-11-20T23:55:24.301Z,41.98
2022-11-20T23:57:51.093Z,41.90
